Погода Буланыкна неделю

Восточная Анатолия, Турция

03 - 09 сентября
  • 03сентября
    Сегодня
    +14°
    +30°
    Ясно и безоблачно
    ВремяПогодаТемператураВлажностьДавлениеВетер, м/сВероятность осадков
    00:00Ясно и безоблачно+20°C52 %644 мм0.1 м/с2 %
    03:00Ясно и безоблачно+18°C58 %643 мм0.1 м/с2 %
    06:00Ясно и безоблачно+12°C69 %642 мм0.0 м/с2 %
    09:00Ясно и безоблачно+20°C43 %644 мм1.2 м/с2 %
    12:00Ясно и безоблачно+26°C23 %644 мм1.8 м/с2 %
    15:00Ясно и безоблачно+29°C18 %643 мм1.2 м/с2 %
    18:00Ясно и безоблачно+28°C24 %642 мм0.7 м/с2 %
    21:00Ясно и безоблачно+19°C51 %640 мм0.5 м/с2 %
  • 04сентября
    Пятница
    +12°
    +30°
    Ясно и безоблачно
    ВремяПогодаТемператураВлажностьДавлениеВетер, м/сВероятность осадков
    00:00Ясно и безоблачно+20°C48 %641 мм0.4 м/с2 %
    03:00Ясно и безоблачно+17°C60 %641 мм0.2 м/с2 %
    06:00Ясно и безоблачно+14°C75 %640 мм0.1 м/с2 %
    09:00Ясно и безоблачно+21°C36 %642 мм1.2 м/с2 %
    12:00Практически безоблачно+27°C21 %643 мм1.6 м/с4 %
    15:00Ясно и безоблачно+29°C16 %643 мм2.2 м/с12 %
    18:00Ясно и безоблачно+28°C15 %642 мм2.0 м/с4 %
    21:00Ясно и безоблачно+21°C28 %641 мм1.8 м/с2 %
  • 05сентября
    Суббота
    +11°
    +30°
    Ясно и безоблачно
    ВремяПогодаТемператураВлажностьДавлениеВетер, м/сВероятность осадков
    00:00Ясно и безоблачно+22°C37 %642 мм1.2 м/с2 %
    03:00Ясно и безоблачно+17°C49 %641 мм0.2 м/с2 %
    06:00Ясно и безоблачно+12°C58 %641 мм0.1 м/с2 %
    09:00Ясно и безоблачно+21°C27 %644 мм1.0 м/с2 %
    12:00Ясно и безоблачно+28°C15 %645 мм2.9 м/с2 %
    15:00Ясно и безоблачно+30°C13 %644 мм4.3 м/с2 %
    18:00Ясно и безоблачно+27°C15 %644 мм3.3 м/с2 %
    21:00Ясно и безоблачно+21°C29 %642 мм2.3 м/с2 %
  • 06сентября
    Воскресенье
    +12°
    +30°
    Ясно и безоблачно
    ВремяПогодаТемператураВлажностьДавлениеВетер, м/сВероятность осадков
    00:00Ясно и безоблачно+21°C39 %643 мм0.2 м/с2 %
    03:00Ясно и безоблачно+18°C44 %643 мм0.1 м/с2 %
    06:00Ясно и безоблачно+12°C52 %641 мм0.2 м/с2 %
    09:00Ясно и безоблачно+20°C39 %644 мм0.8 м/с2 %
    12:00Небольшая облачность+27°C18 %644 мм3.8 м/с17 %
    15:00Ясно и безоблачно+29°C18 %643 мм5.3 м/с49 %
    18:00Практически безоблачно+28°C22 %644 мм4.7 м/с36 %
    21:00Ясно и безоблачно+20°C44 %643 мм1.4 м/с11 %
  • 07сентября
    Понедельник
    +9°
    +29°
    Ясно и безоблачно
    ВремяПогодаТемператураВлажностьДавлениеВетер, м/сВероятность осадков
    00:00Ясно и безоблачно+19°C63 %643 мм0.2 м/с2 %
    03:00Ясно и безоблачно+18°C66 %643 мм0.3 м/с2 %
    06:00Ясно и безоблачно+13°C70 %641 мм0.1 м/с2 %
    09:00Ясно и безоблачно+20°C38 %644 мм1.0 м/с2 %
    12:00Ясно и безоблачно+26°C23 %644 мм2.1 м/с2 %
    15:00Ясно и безоблачно+29°C13 %643 мм4.9 м/с2 %
    18:00Ясно и безоблачно+27°C15 %642 мм3.3 м/с3 %
    21:00Ясно и безоблачно+20°C34 %642 мм2.1 м/с2 %
  • 08сентября
    Вторник
    +8°
    +28°
    Ясно и безоблачно
    ВремяПогодаТемператураВлажностьДавлениеВетер, м/сВероятность осадков
    03:00Ясно и безоблачно+15°C62 %642 мм1.2 м/с2 %
    09:00Ясно и безоблачно+17°C41 %643 мм2.0 м/с2 %
    15:00Ясно и безоблачно+27°C18 %641 мм2.3 м/с2 %
    21:00Ясно и безоблачно+18°C33 %640 мм1.8 м/с2 %
  • 09сентября
    Среда
    +11°
    +27°
    Ясно и безоблачно
    ВремяПогодаТемператураВлажностьДавлениеВетер, м/сВероятность осадков
    03:00Ясно и безоблачно+11°C56 %639 мм1.3 м/с2 %
    09:00Ясно и безоблачно+16°C43 %643 мм1.8 м/с2 %
    15:00Ясно и безоблачно+26°C21 %644 мм2.3 м/с2 %
    21:00Ясно и безоблачно+18°C33 %642 мм1.6 м/с2 %
Мы используем cookies
Соглашаюсь